Time;durP1;ratioP1;P1;durP2;ratioP2;P2;SDS_P1;SDS_P2;PMS_P1;PMS_P2;Temp;Humidity;BMP_temperature;BMP_pressure;BME280_temperature;BME280_humidity;BME280_pressure;Samples;Min_cycle;Max_cycle;Signal;HPM_P1;HPM_P2
2024/04/11 00:00:08;;;;;;;;;;;5.10;99.90;;;;;;5478016;26;20345;-65
2024/04/11 00:02:43;;;;;;;;;;;5.10;99.90;;;;;;5471510;26;19959;-65
2024/04/11 00:05:10;;;;;;;;;;;5.10;99.90;;;;;;5477990;26;19928;-65
2024/04/11 00:07:43;;;;;;;;;;;5.00;99.90;;;;;;5481883;26;20376;-66
2024/04/11 00:10:12;;;;;;;;;;;5.00;99.90;;;;;;5478684;26;19935;-65
2024/04/11 00:12:38;;;;;;;;;;;5.00;99.90;;;;;;5484573;26;19935;-65
2024/04/11 00:15:05;;;;;;;;;;;5.00;99.90;;;;;;5484200;26;19935;-65
2024/04/11 00:17:37;;;;;;;;;;;5.00;99.90;;;;;;5476461;26;20395;-65
2024/04/11 00:20:09;;;;;;;;;;;5.00;99.90;;;;;;5479556;26;19962;-65
2024/04/11 00:22:36;;;;;;;;;;;5.00;99.90;;;;;;5480952;26;20396;-65
2024/04/11 00:25:02;;;;;;;;;;;5.00;99.90;;;;;;5481842;26;19935;-65
2024/04/11 00:27:29;;;;;;;;;;;4.90;99.90;;;;;;5477806;26;19935;-65
2024/04/11 00:29:56;;;;;;;;;;;4.90;99.90;;;;;;5478071;26;19939;-65
2024/04/11 00:32:23;;;;;;;;;;;4.90;99.90;;;;;;5485764;26;19936;-65
2024/04/11 00:34:50;;;;;;;;;;;4.80;99.90;;;;;;5479408;26;19943;-66
2024/04/11 00:37:17;;;;;;;;;;;4.80;99.90;;;;;;5486742;26;20000;-66
2024/04/11 00:39:44;;;;;;;;;;;4.80;99.90;;;;;;5480916;26;19932;-65
2024/04/11 00:42:12;;;;;;;;;;;4.70;99.90;;;;;;5481264;26;19941;-65
2024/04/11 00:44:39;;;;;;;;;;;4.70;99.90;;;;;;5453326;26;19954;-65
2024/04/11 00:47:09;;;;;;;;;;;4.70;99.90;;;;;;5479019;26;20311;-65
2024/04/11 00:49:40;;;;;;;;;;;4.70;99.90;;;;;;5484324;26;19937;-65
2024/04/11 00:52:10;;;;;;;;;;;4.70;99.90;;;;;;5469573;26;19936;-65
2024/04/11 00:54:37;;;;;;;;;;;4.70;99.90;;;;;;5480877;26;19979;-65
2024/04/11 00:57:07;;;;;;;;;;;4.70;99.90;;;;;;5475752;26;19928;-65
2024/04/11 00:59:37;;;;;;;;;;;4.70;99.90;;;;;;5478868;26;19997;-65
2024/04/11 01:02:08;;;;;;;;;;;4.70;99.90;;;;;;5484029;26;20591;-65
2024/04/11 01:04:35;;;;;;;;;;;4.60;99.90;;;;;;5483447;26;19932;-65
2024/04/11 01:07:09;;;;;;;;;;;4.60;99.90;;;;;;5482168;26;19928;-65
2024/04/11 01:09:45;;;;;;;;;;;4.60;99.90;;;;;;5478585;26;19928;-66
2024/04/11 01:12:13;;;;;;;;;;;4.40;99.90;;;;;;5479226;26;19932;-65
2024/04/11 01:14:46;;;;;;;;;;;4.30;99.90;;;;;;5475375;26;19935;-65
2024/04/11 01:17:14;;;;;;;;;;;4.40;99.90;;;;;;5476293;26;19928;-65
2024/04/11 01:19:41;;;;;;;;;;;4.30;99.90;;;;;;5479088;26;19928;-65
2024/04/11 01:22:11;;;;;;;;;;;4.30;99.90;;;;;;5481255;26;19997;-65
2024/04/11 01:24:40;;;;;;;;;;;4.30;99.90;;;;;;5480104;26;20384;-65
2024/04/11 01:27:11;;;;;;;;;;;4.40;99.90;;;;;;5482453;26;20001;-65
2024/04/11 01:29:39;;;;;;;;;;;4.40;99.90;;;;;;5484533;26;19940;-65
2024/04/11 01:32:06;;;;;;;;;;;4.40;99.90;;;;;;5483562;26;19932;-65
2024/04/11 01:34:32;;;;;;;;;;;4.40;99.90;;;;;;5483001;26;19936;-65
2024/04/11 01:36:59;;;;;;;;;;;4.40;99.90;;;;;;5475252;26;19934;-66
2024/04/11 01:39:31;;;;;;;;;;;4.40;99.90;;;;;;5479797;26;19928;-65
2024/04/11 01:42:04;;;;;;;;;;;4.40;99.90;;;;;;5448895;26;20415;-65
2024/04/11 01:44:36;;;;;;;;;;;4.40;99.90;;;;;;5479743;26;19935;-65
2024/04/11 01:47:02;;;;;;;;;;;4.40;99.90;;;;;;5480256;26;19959;-65
2024/04/11 01:49:31;;;;;;;;;;;4.40;99.90;;;;;;5485283;26;19940;-65
2024/04/11 01:51:58;;;;;;;;;;;4.30;99.90;;;;;;5476309;26;19996;-65
2024/04/11 01:54:25;;;;;;;;;;;4.30;99.90;;;;;;5481743;26;19939;-65
2024/04/11 01:56:51;;;;;;;;;;;4.20;99.90;;;;;;5485645;26;19939;-65
2024/04/11 01:59:19;;;;;;;;;;;4.20;99.90;;;;;;5478048;26;20013;-65
2024/04/11 02:01:51;;;;;;;;;;;4.20;99.90;;;;;;5510350;25;19928;-65
2024/04/11 02:04:17;;;;;;;;;;;4.20;99.90;;;;;;5477565;26;20397;-65
2024/04/11 02:06:51;;;;;;;;;;;4.20;99.90;;;;;;5479370;26;19928;-65
2024/04/11 02:09:22;;;;;;;;;;;4.20;99.90;;;;;;5480042;26;19956;-63
2024/04/11 02:11:53;;;;;;;;;;;4.20;99.90;;;;;;5480805;26;19964;-64
2024/04/11 02:14:21;;;;;;;;;;;4.20;99.90;;;;;;5485265;26;19939;-63
2024/04/11 02:16:50;;;;;;;;;;;4.20;99.90;;;;;;5482601;26;19997;-62
2024/04/11 02:19:17;;;;;;;;;;;4.20;99.90;;;;;;5486171;26;19934;-63
2024/04/11 02:21:43;;;;;;;;;;;4.20;99.90;;;;;;5484163;26;19973;-63
2024/04/11 02:24:22;;;;;;;;;;;4.20;99.90;;;;;;5481729;26;19928;-63
2024/04/11 02:26:48;;;;;;;;;;;4.20;99.90;;;;;;5485235;26;19928;-63
2024/04/11 02:29:16;;;;;;;;;;;4.20;99.90;;;;;;5487420;26;19928;-63
2024/04/11 02:31:43;;;;;;;;;;;4.20;99.90;;;;;;5484115;26;19940;-63
2024/04/11 02:34:10;;;;;;;;;;;4.10;99.90;;;;;;5479270;26;20277;-64
2024/04/11 02:36:37;;;;;;;;;;;4.10;99.90;;;;;;5482263;26;19960;-63
2024/04/11 02:39:12;;;;;;;;;;;4.10;99.90;;;;;;5476199;26;19932;-63
2024/04/11 02:41:39;;;;;;;;;;;4.00;99.90;;;;;;5481318;26;19928;-63
2024/04/11 02:44:05;;;;;;;;;;;4.00;99.90;;;;;;5481997;26;19939;-63
2024/04/11 02:46:32;;;;;;;;;;;4.00;99.90;;;;;;5487879;26;19932;-63
2024/04/11 02:48:59;;;;;;;;;;;4.00;99.90;;;;;;5487042;26;19947;-63
2024/04/11 02:51:26;;;;;;;;;;;4.00;99.90;;;;;;5487189;26;19935;-63
2024/04/11 02:53:58;;;;;;;;;;;4.00;99.90;;;;;;5486406;26;19932;-63
2024/04/11 02:56:26;;;;;;;;;;;4.00;99.90;;;;;;5483675;26;19943;-63
2024/04/11 02:58:56;;;;;;;;;;;4.00;99.90;;;;;;5479671;26;19956;-63
2024/04/11 03:01:22;;;;;;;;;;;3.90;99.90;;;;;;5486152;26;19939;-63
2024/04/11 03:03:58;;;;;;;;;;;4.00;99.90;;;;;;5487128;26;19956;-63
2024/04/11 03:06:31;;;;;;;;;;;3.90;99.90;;;;;;5482668;26;19931;-63
2024/04/11 03:08:58;;;;;;;;;;;3.90;99.90;;;;;;5481350;26;19936;-63
2024/04/11 03:11:25;;;;;;;;;;;3.90;99.90;;;;;;5484819;26;19939;-63
2024/04/11 03:13:58;;;;;;;;;;;3.90;99.90;;;;;;5486657;26;19928;-63
2024/04/11 03:16:27;;;;;;;;;;;3.90;99.90;;;;;;5481945;26;19929;-63
2024/04/11 03:18:54;;;;;;;;;;;3.90;99.90;;;;;;5486493;26;20293;-63
2024/04/11 03:21:20;;;;;;;;;;;3.80;99.90;;;;;;5484341;26;19932;-63
2024/04/11 03:23:47;;;;;;;;;;;3.70;99.90;;;;;;5478611;26;20296;-63
2024/04/11 03:26:14;;;;;;;;;;;3.70;99.90;;;;;;5482344;26;19929;-63
2024/04/11 03:28:44;;;;;;;;;;;3.70;99.90;;;;;;5479489;26;19935;-63
2024/04/11 03:31:13;;;;;;;;;;;3.70;99.90;;;;;;5480040;26;20461;-63
2024/04/11 03:33:40;;;;;;;;;;;3.70;99.90;;;;;;5472045;26;19940;-63
2024/04/11 03:36:12;;;;;;;;;;;3.60;99.90;;;;;;5485559;26;19935;-63
2024/04/11 03:38:40;;;;;;;;;;;3.60;99.90;;;;;;5482357;26;19936;-64
2024/04/11 03:41:10;;;;;;;;;;;3.60;99.90;;;;;;5474308;26;19957;-63
2024/04/11 03:43:42;;;;;;;;;;;3.60;99.90;;;;;;5474911;26;19928;-63
2024/04/11 03:46:18;;;;;;;;;;;3.60;99.90;;;;;;5476953;26;19956;-63
2024/04/11 03:48:55;;;;;;;;;;;3.60;99.90;;;;;;5468702;26;19928;-63
2024/04/11 03:51:23;;;;;;;;;;;3.60;99.90;;;;;;5510806;26;20334;-63
2024/04/11 03:53:51;;;;;;;;;;;3.60;99.90;;;;;;5483329;26;19928;-63
2024/04/11 03:56:22;;;;;;;;;;;3.60;99.90;;;;;;5479681;26;19928;-63
2024/04/11 03:58:50;;;;;;;;;;;3.50;99.90;;;;;;5473552;26;19997;-64
2024/04/11 04:01:18;;;;;;;;;;;3.50;99.90;;;;;;5482785;26;19928;-65
2024/04/11 04:03:54;;;;;;;;;;;3.50;99.90;;;;;;5479386;26;19928;-63
2024/04/11 04:06:21;;;;;;;;;;;3.50;99.90;;;;;;5478857;26;19944;-64
2024/04/11 04:08:54;;;;;;;;;;;3.50;99.90;;;;;;5486321;26;19939;-63
2024/04/11 04:11:21;;;;;;;;;;;3.50;99.90;;;;;;5480360;26;19956;-63
2024/04/11 04:13:53;;;;;;;;;;;3.50;99.90;;;;;;5477382;26;19936;-63
2024/04/11 04:16:21;;;;;;;;;;;3.50;99.90;;;;;;5479161;26;19928;-63
2024/04/11 04:18:50;;;;;;;;;;;3.50;99.90;;;;;;5473597;26;19928;-63
2024/04/11 04:21:20;;;;;;;;;;;3.50;99.90;;;;;;5476733;26;20011;-63
2024/04/11 04:23:54;;;;;;;;;;;3.50;99.90;;;;;;5481749;26;19928;-63
2024/04/11 04:26:22;;;;;;;;;;;3.50;99.90;;;;;;5483919;26;19928;-63
2024/04/11 04:28:49;;;;;;;;;;;3.50;99.90;;;;;;5471587;26;19961;-63
2024/04/11 04:31:16;;;;;;;;;;;3.50;99.90;;;;;;5476532;26;19997;-62
2024/04/11 04:33:47;;;;;;;;;;;3.50;99.90;;;;;;5468606;26;19928;-65
2024/04/11 04:36:20;;;;;;;;;;;3.60;99.90;;;;;;5467247;26;19929;-65
2024/04/11 04:38:47;;;;;;;;;;;3.90;99.90;;;;;;5474604;26;19935;-64
2024/04/11 04:41:13;;;;;;;;;;;3.90;99.90;;;;;;5470488;26;19953;-64
2024/04/11 04:43:41;;;;;;;;;;;3.80;99.90;;;;;;5469555;26;20301;-66
2024/04/11 04:46:09;;;;;;;;;;;3.70;99.90;;;;;;5465690;26;19928;-65
2024/04/11 04:48:35;;;;;;;;;;;3.60;99.90;;;;;;5465735;26;20289;-65
2024/04/11 04:51:04;;;;;;;;;;;3.50;99.90;;;;;;5470369;26;19928;-65
2024/04/11 04:53:37;;;;;;;;;;;3.50;99.90;;;;;;5478779;26;19961;-65
2024/04/11 04:56:12;;;;;;;;;;;3.50;99.90;;;;;;5491568;26;20005;-65
2024/04/11 04:58:39;;;;;;;;;;;3.40;99.90;;;;;;5461405;26;19928;-63
2024/04/11 05:01:07;;;;;;;;;;;3.40;99.90;;;;;;5474579;26;20447;-63
2024/04/11 05:03:34;;;;;;;;;;;3.30;99.90;;;;;;5479399;26;19928;-63
2024/04/11 05:06:04;;;;;;;;;;;3.30;99.90;;;;;;5473595;26;19947;-63
2024/04/11 05:08:32;;;;;;;;;;;3.30;99.90;;;;;;5476040;26;20035;-63
2024/04/11 05:10:59;;;;;;;;;;;3.30;99.90;;;;;;5468837;26;20803;-63
2024/04/11 05:13:32;;;;;;;;;;;3.30;99.90;;;;;;5464666;26;19932;-62
2024/04/11 05:16:06;;;;;;;;;;;3.40;99.90;;;;;;5463687;26;19928;-64
2024/04/11 05:18:37;;;;;;;;;;;3.40;99.90;;;;;;5484159;26;20394;-63
2024/04/11 05:21:07;;;;;;;;;;;3.40;99.90;;;;;;5474261;26;19928;-63
2024/04/11 05:23:36;;;;;;;;;;;3.40;99.90;;;;;;5483341;26;19935;-63
2024/04/11 05:26:07;;;;;;;;;;;3.50;99.90;;;;;;5473241;26;19928;-63
2024/04/11 05:28:42;;;;;;;;;;;3.50;99.90;;;;;;5486124;26;20010;-63
2024/04/11 05:31:18;;;;;;;;;;;3.50;99.90;;;;;;5476293;26;19928;-63
2024/04/11 05:33:47;;;;;;;;;;;3.60;99.90;;;;;;5470420;26;19996;-63
2024/04/11 05:36:24;;;;;;;;;;;3.60;99.90;;;;;;5482948;26;19931;-63
2024/04/11 05:38:52;;;;;;;;;;;3.60;99.90;;;;;;5484969;26;19932;-63
2024/04/11 05:41:19;;;;;;;;;;;3.60;99.90;;;;;;5473287;26;19935;-63
2024/04/11 05:43:49;;;;;;;;;;;3.70;99.90;;;;;;5464750;26;19931;-62
2024/04/11 05:46:19;;;;;;;;;;;3.70;99.90;;;;;;5471758;26;19996;-63
2024/04/11 05:48:49;;;;;;;;;;;3.70;99.90;;;;;;5481012;26;19928;-63
2024/04/11 05:51:16;;;;;;;;;;;3.70;99.90;;;;;;5474559;26;19960;-65
2024/04/11 05:53:43;;;;;;;;;;;3.70;99.90;;;;;;5485310;26;19927;-65
2024/04/11 05:56:12;;;;;;;;;;;3.70;99.90;;;;;;5478378;26;19932;-65
2024/04/11 05:58:43;;;;;;;;;;;3.70;99.90;;;;;;5481699;26;19928;-64
2024/04/11 06:01:15;;;;;;;;;;;3.70;99.90;;;;;;5476263;26;19936;-65
2024/04/11 06:03:49;;;;;;;;;;;3.70;99.90;;;;;;5481005;26;19928;-65
2024/04/11 06:06:19;;;;;;;;;;;3.80;99.90;;;;;;5505049;26;19972;-65
2024/04/11 06:08:46;;;;;;;;;;;3.80;99.90;;;;;;5477608;26;19935;-65
2024/04/11 06:11:19;;;;;;;;;;;3.90;99.90;;;;;;5481918;26;19928;-65
2024/04/11 06:13:47;;;;;;;;;;;4.00;99.90;;;;;;5480667;26;19940;-65
2024/04/11 06:16:14;;;;;;;;;;;4.10;99.90;;;;;;5480397;26;20335;-65
2024/04/11 06:18:42;;;;;;;;;;;4.10;99.90;;;;;;5479299;26;19928;-65
2024/04/11 06:21:11;;;;;;;;;;;4.20;99.90;;;;;;5483568;26;19932;-65
2024/04/11 06:23:38;;;;;;;;;;;4.30;99.90;;;;;;5486207;26;19929;-65
2024/04/11 06:26:11;;;;;;;;;;;4.40;99.90;;;;;;5483953;26;19934;-65
2024/04/11 06:28:38;;;;;;;;;;;4.50;99.90;;;;;;5469962;26;19953;-65
2024/04/11 06:31:12;;;;;;;;;;;4.60;99.90;;;;;;5477232;26;20400;-65
2024/04/11 06:33:40;;;;;;;;;;;4.60;99.90;;;;;;5475743;26;19928;-65
2024/04/11 06:36:07;;;;;;;;;;;4.80;99.90;;;;;;5476408;26;20000;-65
2024/04/11 06:38:34;;;;;;;;;;;5.20;99.90;;;;;;5480349;26;19928;-65
2024/04/11 06:41:02;;;;;;;;;;;5.60;99.90;;;;;;5475700;26;19963;-65
2024/04/11 06:43:31;;;;;;;;;;;5.90;99.90;;;;;;5483673;26;19935;-65
2024/04/11 06:45:57;;;;;;;;;;;6.30;99.90;;;;;;5485054;26;20313;-65
2024/04/11 06:48:24;;;;;;;;;;;6.60;99.90;;;;;;5485894;26;19928;-65
2024/04/11 06:50:58;;;;;;;;;;;6.80;99.90;;;;;;5485948;26;19955;-63
2024/04/11 06:53:25;;;;;;;;;;;7.00;99.90;;;;;;5514211;26;19935;-63
2024/04/11 06:55:56;;;;;;;;;;;7.10;99.90;;;;;;5477087;26;19928;-63
2024/04/11 06:58:28;;;;;;;;;;;7.20;99.90;;;;;;5477495;26;19927;-63
2024/04/11 07:00:59;;;;;;;;;;;7.20;99.90;;;;;;5475670;26;20404;-63
2024/04/11 07:03:26;;;;;;;;;;;7.20;99.90;;;;;;5474557;26;19929;-63
2024/04/11 07:05:57;;;;;;;;;;;7.20;99.90;;;;;;5475142;26;19929;-64
2024/04/11 07:08:34;;;;;;;;;;;7.20;99.90;;;;;;5475575;26;20618;-63
2024/04/11 07:13:57;;;;;;;;;;;7.10;99.90;;;;;;5483489;26;19995;-64
2024/04/11 07:16:40;;;;;;;;;;;7.20;99.90;;;;;;5486352;26;19935;-63
2024/04/11 07:19:08;;;;;;;;;;;7.10;99.90;;;;;;5475218;26;19928;-63
2024/04/11 07:21:43;;;;;;;;;;;7.20;99.90;;;;;;5481105;26;19952;-63
2024/04/11 07:24:15;;;;;;;;;;;7.20;99.90;;;;;;5473795;26;19935;-63
2024/04/11 07:26:48;;;;;;;;;;;7.30;99.90;;;;;;5478557;26;19935;-62
2024/04/11 07:29:15;;;;;;;;;;;7.40;99.90;;;;;;5481284;26;19928;-63
2024/04/11 07:31:42;;;;;;;;;;;7.60;99.90;;;;;;5478684;26;20000;-63
2024/04/11 07:34:09;;;;;;;;;;;7.70;99.90;;;;;;5482473;26;20374;-63
2024/04/11 07:36:39;;;;;;;;;;;7.70;99.90;;;;;;5485343;26;19934;-62
2024/04/11 07:39:08;;;;;;;;;;;7.80;99.90;;;;;;5477247;26;19943;-64
2024/04/11 07:41:44;;;;;;;;;;;7.90;99.90;;;;;;5476680;26;19977;-63
2024/04/11 07:44:17;;;;;;;;;;;8.00;99.90;;;;;;5473724;26;19934;-63
2024/04/11 07:46:49;;;;;;;;;;;8.00;99.90;;;;;;5467346;26;19936;-63
2024/04/11 07:49:23;;;;;;;;;;;8.00;99.90;;;;;;5470523;26;19953;-63
2024/04/11 07:51:51;;;;;;;;;;;8.00;99.90;;;;;;5469167;26;20001;-63
2024/04/11 07:54:18;;;;;;;;;;;8.00;99.90;;;;;;5465845;26;19933;-63
2024/04/11 07:56:45;;;;;;;;;;;8.10;99.90;;;;;;5464848;26;19936;-63
2024/04/11 07:59:17;;;;;;;;;;;8.20;99.90;;;;;;5482011;26;19996;-63
2024/04/11 08:01:49;;;;;;;;;;;8.20;99.90;;;;;;5472813;26;19928;-63
2024/04/11 08:04:16;;;;;;;;;;;8.30;99.90;;;;;;5481960;26;20056;-63
2024/04/11 08:06:44;;;;;;;;;;;8.40;99.90;;;;;;5478982;26;19936;-63
2024/04/11 08:09:12;;;;;;;;;;;8.60;99.90;;;;;;5482206;26;19975;-63
2024/04/11 08:11:39;;;;;;;;;;;8.70;99.90;;;;;;5478336;26;19935;-63
2024/04/11 08:14:06;;;;;;;;;;;8.80;99.90;;;;;;5485192;26;20391;-64
2024/04/11 08:16:34;;;;;;;;;;;8.90;99.90;;;;;;5480449;26;19936;-63
2024/04/11 08:19:04;;;;;;;;;;;9.10;99.90;;;;;;5480052;26;19928;-65
2024/04/11 08:21:32;;;;;;;;;;;9.20;99.90;;;;;;5472226;26;19928;-65
2024/04/11 08:24:00;;;;;;;;;;;9.30;99.90;;;;;;5478658;26;19939;-66
2024/04/11 08:26:27;;;;;;;;;;;9.40;99.90;;;;;;5478804;26;20375;-65
2024/04/11 08:28:55;;;;;;;;;;;9.60;99.90;;;;;;5484576;26;19931;-65
2024/04/11 08:31:29;;;;;;;;;;;9.70;99.90;;;;;;5485501;26;19928;-65
2024/04/11 08:33:59;;;;;;;;;;;9.80;99.90;;;;;;5484701;26;19928;-65
2024/04/11 08:36:28;;;;;;;;;;;10.00;99.90;;;;;;5480883;26;19952;-65
2024/04/11 08:38:56;;;;;;;;;;;10.10;99.90;;;;;;5474872;26;20387;-65
2024/04/11 08:41:23;;;;;;;;;;;10.20;99.90;;;;;;5469353;26;20269;-65
2024/04/11 08:43:51;;;;;;;;;;;10.30;99.90;;;;;;5474532;26;19956;-63
2024/04/11 08:46:18;;;;;;;;;;;10.30;99.90;;;;;;5479477;26;20445;-63
2024/04/11 08:48:45;;;;;;;;;;;10.40;99.90;;;;;;5475038;26;20168;-63
2024/04/11 08:51:18;;;;;;;;;;;10.50;99.90;;;;;;5481228;26;20297;-63
2024/04/11 08:53:56;;;;;;;;;;;10.70;99.90;;;;;;5484613;26;20284;-63
2024/04/11 08:56:23;;;;;;;;;;;10.80;99.90;;;;;;5483906;26;19935;-65
2024/04/11 08:58:55;;;;;;;;;;;11.00;99.90;;;;;;5485358;26;19997;-65
2024/04/11 09:01:23;;;;;;;;;;;11.10;99.90;;;;;;5487251;26;20281;-65
2024/04/11 09:03:52;;;;;;;;;;;11.30;99.90;;;;;;5474915;26;20738;-65
2024/04/11 09:06:24;;;;;;;;;;;11.40;99.90;;;;;;5476937;26;19973;-65
2024/04/11 09:08:52;;;;;;;;;;;11.50;99.90;;;;;;5480274;26;19936;-63
2024/04/11 09:11:19;;;;;;;;;;;11.60;99.90;;;;;;5471031;26;19936;-63
2024/04/11 09:13:50;;;;;;;;;;;11.70;99.90;;;;;;5488038;26;19935;-63
2024/04/11 09:16:21;;;;;;;;;;;11.80;99.90;;;;;;5478373;26;19931;-63
2024/04/11 09:19:00;;;;;;;;;;;12.00;99.90;;;;;;5482669;26;19928;-63
2024/04/11 09:21:28;;;;;;;;;;;12.10;99.90;;;;;;5483212;26;19932;-63
2024/04/11 09:23:54;;;;;;;;;;;12.20;99.90;;;;;;5481339;26;19928;-63
2024/04/11 09:26:29;;;;;;;;;;;12.40;99.90;;;;;;5480992;26;19928;-64
2024/04/11 09:29:04;;;;;;;;;;;12.40;99.90;;;;;;5487246;26;19932;-63
2024/04/11 09:31:32;;;;;;;;;;;12.50;99.90;;;;;;5478573;26;20280;-63
2024/04/11 09:33:59;;;;;;;;;;;12.50;99.90;;;;;;5476601;26;19939;-63
2024/04/11 09:36:28;;;;;;;;;;;12.60;99.90;;;;;;5477275;26;19940;-63
2024/04/11 09:39:05;;;;;;;;;;;12.70;99.90;;;;;;5475210;26;19928;-63
2024/04/11 09:41:36;;;;;;;;;;;12.70;99.90;;;;;;5484743;26;19943;-63
2024/04/11 09:44:06;;;;;;;;;;;12.80;99.90;;;;;;5474836;26;19932;-62
2024/04/11 09:46:41;;;;;;;;;;;12.90;99.90;;;;;;5480522;26;20407;-63
2024/04/11 09:49:13;;;;;;;;;;;12.90;99.90;;;;;;5487972;26;19939;-63
2024/04/11 09:51:45;;;;;;;;;;;12.90;99.90;;;;;;5471630;26;19935;-63
2024/04/11 09:54:13;;;;;;;;;;;13.00;99.90;;;;;;5485039;26;19956;-63
2024/04/11 09:56:42;;;;;;;;;;;13.10;99.90;;;;;;5477920;26;19933;-62
2024/04/11 09:59:09;;;;;;;;;;;13.20;99.90;;;;;;5471968;26;19934;-63
2024/04/11 10:01:38;;;;;;;;;;;13.30;99.90;;;;;;5478125;26;19997;-63
2024/04/11 10:04:25;;;;;;;;;;;13.30;99.90;;;;;;5483230;26;19928;-62
2024/04/11 10:06:52;;;;;;;;;;;13.50;99.90;;;;;;5483512;26;20352;-63
2024/04/11 10:09:23;;;;;;;;;;;13.60;99.90;;;;;;5471806;26;20305;-63
2024/04/11 10:12:01;;;;;;;;;;;13.80;99.90;;;;;;5479752;26;20478;-63
2024/04/11 10:14:33;;;;;;;;;;;13.80;99.90;;;;;;5474336;26;19932;-62
2024/04/11 10:17:05;;;;;;;;;;;14.00;99.90;;;;;;5480138;26;20368;-63
2024/04/11 10:19:32;;;;;;;;;;;14.10;99.90;;;;;;5478826;26;19936;-63
2024/04/11 10:22:06;;;;;;;;;;;14.00;99.90;;;;;;5478173;26;20372;-63
2024/04/11 10:24:34;;;;;;;;;;;14.00;99.90;;;;;;5477551;26;19928;-63
2024/04/11 10:27:09;;;;;;;;;;;13.90;99.90;;;;;;5479282;26;19935;-62
2024/04/11 10:29:46;;;;;;;;;;;14.00;99.90;;;;;;5485568;26;19927;-63
2024/04/11 10:32:26;;;;;;;;;;;14.20;99.90;;;;;;5478162;26;19931;-63
2024/04/11 10:34:56;;;;;;;;;;;14.30;99.90;;;;;;5478556;26;19979;-62
2024/04/11 10:37:24;;;;;;;;;;;14.50;99.90;;;;;;5478249;26;19935;-63
2024/04/11 10:40:00;;;;;;;;;;;14.60;99.90;;;;;;5486169;26;19935;-63
2024/04/11 10:42:39;;;;;;;;;;;14.70;99.90;;;;;;5486323;26;19935;-63
2024/04/11 10:45:10;;;;;;;;;;;14.70;99.90;;;;;;5483756;26;20530;-62
2024/04/11 10:47:38;;;;;;;;;;;14.90;99.90;;;;;;5474409;26;19932;-62
2024/04/11 10:50:09;;;;;;;;;;;15.00;99.90;;;;;;5466505;26;19940;-62
2024/04/11 10:52:37;;;;;;;;;;;15.10;99.90;;;;;;5465243;26;19932;-62
2024/04/11 10:55:12;;;;;;;;;;;15.30;99.90;;;;;;5472428;26;19968;-63
2024/04/11 10:57:44;;;;;;;;;;;15.30;99.90;;;;;;5465277;26;19928;-63
2024/04/11 11:00:11;;;;;;;;;;;15.20;99.90;;;;;;5465743;26;20384;-62
2024/04/11 11:02:44;;;;;;;;;;;15.10;99.90;;;;;;5460662;26;19943;-62
2024/04/11 11:05:13;;;;;;;;;;;15.00;99.90;;;;;;5472926;26;19934;-63
2024/04/11 11:07:40;;;;;;;;;;;14.80;99.90;;;;;;5477001;26;19998;-62
2024/04/11 11:10:11;;;;;;;;;;;14.80;99.90;;;;;;5486983;26;19928;-63
2024/04/11 11:12:38;;;;;;;;;;;14.80;99.90;;;;;;5475001;26;19943;-62
2024/04/11 11:15:06;;;;;;;;;;;14.80;99.90;;;;;;5477348;26;19957;-63
2024/04/11 11:17:39;;;;;;;;;;;14.70;99.90;;;;;;5475763;26;19928;-62
2024/04/11 11:20:13;;;;;;;;;;;14.60;99.90;;;;;;5472298;26;19962;-63
2024/04/11 11:22:40;;;;;;;;;;;14.60;99.90;;;;;;5472636;26;20309;-62
2024/04/11 11:25:14;;;;;;;;;;;14.70;99.90;;;;;;5484539;26;19931;-62
2024/04/11 11:27:41;;;;;;;;;;;14.80;99.90;;;;;;5461734;26;19928;-63
2024/04/11 11:30:15;;;;;;;;;;;14.80;99.90;;;;;;5471244;26;20283;-61
2024/04/11 11:32:43;;;;;;;;;;;14.90;99.90;;;;;;5479001;26;19940;-64
2024/04/11 11:35:12;;;;;;;;;;;14.90;99.90;;;;;;5472771;26;19934;-62
2024/04/11 11:37:39;;;;;;;;;;;15.00;99.90;;;;;;5476655;26;20451;-62
2024/04/11 11:42:52;;;;;;;;;;;15.20;99.90;;;;;;5475467;26;19931;-63
2024/04/11 11:45:27;;;;;;;;;;;15.30;99.90;;;;;;5473933;26;19936;-63
2024/04/11 11:47:57;;;;;;;;;;;15.30;99.90;;;;;;5475693;26;19928;-62
2024/04/11 11:50:35;;;;;;;;;;;15.30;99.90;;;;;;5473156;26;19928;-62
2024/04/11 11:55:55;;;;;;;;;;;15.40;99.90;;;;;;5483511;26;19928;-62
2024/04/11 11:58:23;;;;;;;;;;;15.50;99.90;;;;;;5470693;26;19928;-62
2024/04/11 12:00:58;;;;;;;;;;;15.50;99.90;;;;;;5474187;26;19996;-62
2024/04/11 12:03:31;;;;;;;;;;;15.70;99.90;;;;;;5473844;26;19943;-63
2024/04/11 12:06:04;;;;;;;;;;;15.70;99.90;;;;;;5478456;26;19935;-62
2024/04/11 12:08:37;;;;;;;;;;;15.70;99.90;;;;;;5478552;26;20373;-63
2024/04/11 12:13:45;;;;;;;;;;;15.70;99.90;;;;;;5469310;26;19931;-62
2024/04/11 12:16:15;;;;;;;;;;;15.70;99.90;;;;;;5478118;26;19978;-62
2024/04/11 12:18:42;;;;;;;;;;;15.80;99.90;;;;;;5472038;26;20399;-62
2024/04/11 12:21:26;;;;;;;;;;;15.80;99.90;;;;;;5481181;26;19928;-63
2024/04/11 12:23:58;;;;;;;;;;;15.80;99.90;;;;;;5463862;26;20280;-62
2024/04/11 12:26:32;;;;;;;;;;;15.80;99.90;;;;;;5472367;26;19932;-62
2024/04/11 12:29:04;;;;;;;;;;;16.00;99.90;;;;;;5471582;26;19932;-62
2024/04/11 12:31:32;;;;;;;;;;;16.00;99.90;;;;;;5478359;26;20304;-63
2024/04/11 12:33:59;;;;;;;;;;;16.10;99.90;;;;;;5470068;26;19932;-61
2024/04/11 12:39:32;;;;;;;;;;;16.40;99.90;;;;;;5475384;26;19997;-62
2024/04/11 12:42:02;;;;;;;;;;;16.50;99.90;;;;;;5476845;26;19940;-62
2024/04/11 12:44:37;;;;;;;;;;;16.60;99.90;;;;;;5464982;26;19940;-63
2024/04/11 12:47:14;;;;;;;;;;;16.50;99.90;;;;;;5468968;26;19947;-62
2024/04/11 12:49:47;;;;;;;;;;;16.30;99.90;;;;;;5445980;26;19932;-62
2024/04/11 12:52:23;;;;;;;;;;;16.20;99.90;;;;;;5471085;26;19936;-62
2024/04/11 12:54:51;;;;;;;;;;;16.00;99.90;;;;;;5473337;26;19936;-62
2024/04/11 12:57:18;;;;;;;;;;;15.80;99.90;;;;;;5484326;26;20380;-62
2024/04/11 12:59:47;;;;;;;;;;;15.70;99.90;;;;;;5473319;26;19928;-62
2024/04/11 13:02:22;;;;;;;;;;;15.90;99.90;;;;;;5475717;26;19939;-63
2024/04/11 13:04:54;;;;;;;;;;;16.10;99.90;;;;;;5473845;26;19928;-62
2024/04/11 13:07:29;;;;;;;;;;;16.10;99.90;;;;;;5465882;26;19939;-62
2024/04/11 13:10:10;;;;;;;;;;;16.30;99.90;;;;;;5460617;26;19928;-62
2024/04/11 13:12:44;;;;;;;;;;;16.50;99.90;;;;;;5465010;26;19935;-62
2024/04/11 13:15:19;;;;;;;;;;;16.70;99.90;;;;;;5469468;26;19931;-62
2024/04/11 13:17:52;;;;;;;;;;;16.80;99.90;;;;;;5470503;26;19935;-62
2024/04/11 13:20:27;;;;;;;;;;;16.80;99.90;;;;;;5480417;26;19936;-62
2024/04/11 13:23:09;;;;;;;;;;;16.90;99.90;;;;;;5475226;26;19974;-62
2024/04/11 13:25:45;;;;;;;;;;;17.10;99.90;;;;;;5466294;26;20334;-62
2024/04/11 13:28:12;;;;;;;;;;;17.20;99.90;;;;;;5463987;26;20265;-62
2024/04/11 13:30:46;;;;;;;;;;;17.20;99.90;;;;;;5505693;26;19996;-62
2024/04/11 13:33:18;;;;;;;;;;;17.20;99.90;;;;;;5468760;26;19935;-62
2024/04/11 13:35:50;;;;;;;;;;;17.20;99.90;;;;;;5465980;26;20338;-62
2024/04/11 13:38:23;;;;;;;;;;;17.40;99.90;;;;;;5485062;26;19935;-62
2024/04/11 13:41:15;;;;;;;;;;;17.40;99.90;;;;;;5469938;26;19935;-62
2024/04/11 13:43:42;;;;;;;;;;;17.50;99.90;;;;;;5478415;26;20386;-62
2024/04/11 13:46:09;;;;;;;;;;;17.60;99.90;;;;;;5473092;26;19929;-62
2024/04/11 13:48:38;;;;;;;;;;;17.70;99.90;;;;;;5470560;26;20439;-61
2024/04/11 13:51:15;;;;;;;;;;;17.90;99.90;;;;;;5470135;26;19960;-62
2024/04/11 13:53:45;;;;;;;;;;;17.90;99.90;;;;;;5478895;26;19928;-62
2024/04/11 13:56:13;;;;;;;;;;;17.90;99.90;;;;;;5479507;26;19935;-62
2024/04/11 13:58:48;;;;;;;;;;;17.80;99.90;;;;;;5477199;26;20023;-62
2024/04/11 14:01:27;;;;;;;;;;;17.50;99.90;;;;;;5472022;26;19928;-62
2024/04/11 14:03:54;;;;;;;;;;;17.50;99.90;;;;;;5460116;26;19934;-62
2024/04/11 14:08:56;;;;;;;;;;;17.50;99.90;;;;;;5475711;26;19928;-62
2024/04/11 14:11:29;;;;;;;;;;;17.60;99.90;;;;;;5468987;26;20395;-63
2024/04/11 14:14:04;;;;;;;;;;;17.80;99.90;;;;;;5469380;26;19936;-62
2024/04/11 14:19:35;;;;;;;;;;;18.10;99.90;;;;;;5473231;26;20009;-63
2024/04/11 14:22:29;;;;;;;;;;;18.30;99.90;;;;;;5477920;26;19956;-62
2024/04/11 14:25:43;;;;;;;;;;;18.50;99.90;;;;;;5467915;26;19997;-63
2024/04/11 14:27:50;;;;;;;;;;;18.60;99.90;;;;;;5474910;25;19937;-62
2024/04/11 14:30:25;;;;;;;;;;;18.80;99.90;;;;;;5465584;26;19940;-62
2024/04/11 14:38:07;;;;;;;;;;;19.10;99.90;;;;;;5473304;26;20027;-62
2024/04/11 14:40:37;;;;;;;;;;;19.00;99.90;;;;;;5471596;26;19959;-62
2024/04/11 14:43:10;;;;;;;;;;;19.00;99.90;;;;;;5469470;26;20309;-62
2024/04/11 14:45:42;;;;;;;;;;;19.10;99.90;;;;;;5468120;26;19929;-62
2024/04/11 14:48:18;;;;;;;;;;;19.10;99.90;;;;;;5468323;26;19928;-62
2024/04/11 14:50:48;;;;;;;;;;;19.20;99.90;;;;;;5464353;26;19928;-62
2024/04/11 14:53:22;;;;;;;;;;;19.30;99.90;;;;;;5460345;26;19940;-62
2024/04/11 14:56:10;;;;;;;;;;;19.50;99.90;;;;;;5469246;26;19929;-62
2024/04/11 14:58:42;;;;;;;;;;;19.60;99.90;;;;;;5469358;26;19931;-63
2024/04/11 15:01:16;;;;;;;;;;;19.60;99.30;;;;;;5480457;26;20283;-62
2024/04/11 15:03:56;;;;;;;;;;;19.50;99.90;;;;;;5472851;26;19929;-62
2024/04/11 15:06:23;;;;;;;;;;;19.50;99.90;;;;;;5476797;26;19948;-62